createdAt,value
2023-04-19T00:00:10.473Z,102287.00
2023-04-19T00:02:37.946Z,102292.00
2023-04-19T00:05:06.508Z,102290.00
2023-04-19T00:07:33.895Z,102286.00
2023-04-19T00:10:01.065Z,102277.00
2023-04-19T00:12:28.290Z,102277.00
2023-04-19T00:14:55.604Z,102278.00
2023-04-19T00:17:23.135Z,102275.00
2023-04-19T00:19:51.129Z,102284.00
2023-04-19T00:22:18.470Z,102295.00
2023-04-19T00:24:45.844Z,102293.00
2023-04-19T00:27:13.073Z,102293.00
2023-04-19T00:29:40.613Z,102287.00
2023-04-19T00:32:09.094Z,102287.00
2023-04-19T00:34:36.256Z,102279.00
2023-04-19T00:37:06.424Z,102283.00
2023-04-19T00:39:33.645Z,102272.00
2023-04-19T00:42:01.401Z,102269.00
2023-04-19T00:44:28.940Z,102283.00
2023-04-19T00:46:57.718Z,102288.00
2023-04-19T00:49:26.288Z,102275.00
2023-04-19T00:51:54.022Z,102273.00
2023-04-19T00:54:21.795Z,102288.00
2023-04-19T00:56:49.103Z,102281.00
2023-04-19T00:59:18.606Z,102275.00
2023-04-19T01:01:46.000Z,102268.00
2023-04-19T01:04:14.041Z,102283.00
2023-04-19T01:06:42.673Z,102281.00
2023-04-19T01:09:10.171Z,102273.00
2023-04-19T01:11:41.389Z,102266.00
2023-04-19T01:14:10.757Z,102277.00
2023-04-19T01:16:39.242Z,102257.00
2023-04-19T01:19:06.638Z,102263.00
2023-04-19T01:21:34.134Z,102269.00
2023-04-19T01:24:01.513Z,102269.00
2023-04-19T01:26:29.179Z,102265.00
2023-04-19T01:28:56.447Z,102257.00
2023-04-19T01:31:23.651Z,102267.00
2023-04-19T01:33:50.850Z,102259.00
2023-04-19T01:36:18.035Z,102267.00
2023-04-19T01:38:47.816Z,102256.00
2023-04-19T01:41:15.496Z,102260.00
2023-04-19T01:43:42.695Z,102261.00
2023-04-19T01:46:09.845Z,102256.00
2023-04-19T01:48:36.987Z,102261.00
2023-04-19T01:51:04.314Z,102262.00
2023-04-19T01:53:31.607Z,102255.00
2023-04-19T01:55:58.727Z,102234.00
2023-04-19T01:58:25.999Z,102250.00
2023-04-19T02:00:53.204Z,102248.00
2023-04-19T02:03:20.840Z,102247.00
2023-04-19T02:05:48.126Z,102251.00
2023-04-19T02:08:15.394Z,102243.00
2023-04-19T02:10:42.698Z,102238.00
2023-04-19T02:13:09.990Z,102239.00
2023-04-19T02:15:40.324Z,102235.00
2023-04-19T02:18:08.507Z,102228.00
2023-04-19T02:20:35.847Z,102233.00
2023-04-19T02:23:03.221Z,102239.00
2023-04-19T02:25:31.359Z,102231.00
2023-04-19T02:27:58.590Z,102237.00
2023-04-19T02:30:25.960Z,102232.00
2023-04-19T02:32:55.160Z,102239.00
2023-04-19T02:35:22.656Z,102234.00
2023-04-19T02:37:49.854Z,102233.00
2023-04-19T02:40:17.199Z,102235.00
2023-04-19T02:42:44.342Z,102239.00
2023-04-19T02:45:11.930Z,102246.00
2023-04-19T02:47:39.280Z,102245.00
2023-04-19T02:50:07.564Z,102232.00
2023-04-19T02:52:34.769Z,102245.00
2023-04-19T02:55:02.141Z,102231.00
2023-04-19T02:57:29.393Z,102247.00
2023-04-19T02:59:56.584Z,102243.00
2023-04-19T03:02:23.977Z,102232.00
2023-04-19T03:04:53.131Z,102232.00
2023-04-19T03:07:20.724Z,102244.00
2023-04-19T03:09:47.983Z,102243.00
2023-04-19T03:12:15.276Z,102229.00
2023-04-19T03:14:42.640Z,102235.00
2023-04-19T03:17:09.855Z,102231.00
2023-04-19T03:19:37.257Z,102237.00
2023-04-19T03:22:04.602Z,102230.00
2023-04-19T03:24:32.747Z,102232.00
2023-04-19T03:27:02.761Z,102219.00
2023-04-19T03:29:30.131Z,102220.00
2023-04-19T03:31:57.351Z,102224.00
2023-04-19T03:34:24.945Z,102226.00
2023-04-19T03:36:52.328Z,102229.00
2023-04-19T03:39:19.697Z,102228.00
2023-04-19T03:41:47.240Z,102222.00
2023-04-19T03:44:14.602Z,102221.00
2023-04-19T03:46:42.348Z,102235.00
2023-04-19T03:49:09.513Z,102227.00
2023-04-19T03:51:36.676Z,102216.00
2023-04-19T03:54:04.163Z,102226.00
2023-04-19T03:56:31.489Z,102228.00
2023-04-19T03:58:58.663Z,102229.00
2023-04-19T04:01:26.934Z,102228.00
2023-04-19T04:03:54.310Z,102229.00
2023-04-19T04:06:21.980Z,102226.00
2023-04-19T04:08:49.215Z,102224.00
2023-04-19T04:11:16.840Z,102225.00
2023-04-19T04:13:46.610Z,102231.00
2023-04-19T04:16:13.948Z,102213.00
2023-04-19T04:18:41.485Z,102221.00
2023-04-19T04:21:08.852Z,102215.00
2023-04-19T04:23:36.110Z,102225.00
2023-04-19T04:26:05.324Z,102215.00
2023-04-19T04:28:33.610Z,102228.00
2023-04-19T04:31:01.041Z,102221.00
2023-04-19T04:33:29.313Z,102221.00
2023-04-19T04:35:57.957Z,102226.00
2023-04-19T04:38:25.824Z,102210.00
2023-04-19T04:40:55.638Z,102215.00
2023-04-19T04:43:25.964Z,102227.00
2023-04-19T04:45:58.140Z,102224.00
2023-04-19T04:48:26.424Z,102225.00
2023-04-19T04:50:53.746Z,102224.00
2023-04-19T04:53:21.018Z,102232.00
2023-04-19T04:55:48.279Z,102222.00
2023-04-19T04:58:15.526Z,102232.00
2023-04-19T05:00:43.108Z,102227.00
2023-04-19T05:03:10.533Z,102229.00
2023-04-19T05:05:37.798Z,102234.00
2023-04-19T05:08:05.499Z,102226.00
2023-04-19T05:10:32.784Z,102227.00
2023-04-19T05:13:01.686Z,102227.00
2023-04-19T05:15:28.857Z,102218.00
2023-04-19T05:17:56.093Z,102227.00
2023-04-19T05:20:23.668Z,102226.00
2023-04-19T05:22:50.977Z,102221.00
2023-04-19T05:25:18.098Z,102235.00
2023-04-19T05:27:45.352Z,102243.00
2023-04-19T05:30:12.774Z,102235.00
2023-04-19T05:32:39.968Z,102240.00
2023-04-19T05:35:11.623Z,102240.00
2023-04-19T05:37:39.612Z,102244.00
2023-04-19T05:40:10.428Z,102239.00
2023-04-19T05:42:39.040Z,102236.00
2023-04-19T05:45:07.535Z,102249.00
2023-04-19T05:47:34.770Z,102247.00
2023-04-19T05:50:02.275Z,102242.00
2023-04-19T05:52:29.694Z,102239.00
2023-04-19T05:54:57.184Z,102237.00
2023-04-19T05:57:24.608Z,102242.00
2023-04-19T05:59:52.055Z,102243.00
2023-04-19T06:02:19.516Z,102246.00
2023-04-19T06:04:47.093Z,102241.00
2023-04-19T06:07:30.204Z,102253.00
2023-04-19T06:09:58.888Z,102252.00
2023-04-19T06:12:26.281Z,102248.00
2023-04-19T06:14:53.759Z,102253.00
2023-04-19T06:17:25.765Z,102250.00
2023-04-19T06:19:54.384Z,102252.00
2023-04-19T06:22:22.154Z,102258.00
2023-04-19T06:24:49.719Z,102252.00
2023-04-19T06:27:17.915Z,102251.00
2023-04-19T06:29:45.470Z,102246.00
2023-04-19T06:32:12.944Z,102246.00
2023-04-19T06:34:40.115Z,102248.00
2023-04-19T06:37:07.556Z,102241.00
2023-04-19T06:39:34.865Z,102240.00
2023-04-19T06:42:02.495Z,102244.00
2023-04-19T06:44:31.171Z,102240.00
2023-04-19T06:46:58.429Z,102252.00
2023-04-19T06:49:25.516Z,102241.00
2023-04-19T06:51:53.544Z,102234.00
2023-04-19T06:54:20.718Z,102235.00
2023-04-19T06:56:50.155Z,102241.00
2023-04-19T06:59:20.406Z,102240.00
2023-04-19T07:01:48.941Z,102240.00
2023-04-19T07:04:17.443Z,102236.00
2023-04-19T07:06:48.950Z,102245.00
2023-04-19T07:09:18.708Z,102246.00
2023-04-19T07:11:47.775Z,102248.00
2023-04-19T07:14:20.981Z,102239.00
2023-04-19T07:16:49.723Z,102243.00
2023-04-19T07:19:20.646Z,102255.00
2023-04-19T07:21:47.737Z,102235.00
2023-04-19T07:24:15.354Z,102241.00
2023-04-19T07:26:46.211Z,102247.00
2023-04-19T07:29:13.649Z,102240.00
2023-04-19T07:31:42.129Z,102232.00
2023-04-19T07:34:11.393Z,102232.00
2023-04-19T07:36:39.241Z,102234.00
2023-04-19T07:39:06.507Z,102229.00
2023-04-19T07:41:34.944Z,102232.00
2023-04-19T07:44:05.793Z,102234.00
2023-04-19T07:46:33.138Z,102233.00
2023-04-19T07:49:00.309Z,102224.00
2023-04-19T07:51:27.682Z,102239.00
2023-04-19T07:53:55.252Z,102231.00
2023-04-19T07:56:23.204Z,102233.00
2023-04-19T07:59:04.394Z,102226.00
2023-04-19T08:01:38.594Z,102247.00
2023-04-19T08:04:06.536Z,102232.00
2023-04-19T08:06:34.692Z,102250.00
2023-04-19T08:09:02.108Z,102245.00
2023-04-19T08:11:29.257Z,102240.00
2023-04-19T08:14:06.696Z,102247.00
2023-04-19T08:17:19.369Z,102240.00
2023-04-19T08:19:31.265Z,102234.00
2023-04-19T08:21:58.570Z,102234.00
2023-04-19T08:24:26.069Z,102240.00
2023-04-19T08:26:54.800Z,102241.00
2023-04-19T08:29:22.566Z,102240.00
2023-04-19T08:31:50.650Z,102249.00
2023-04-19T08:34:17.824Z,102238.00
2023-04-19T08:36:52.492Z,102239.00
2023-04-19T08:39:35.249Z,102231.00
2023-04-19T08:42:15.534Z,102239.00
2023-04-19T08:45:25.388Z,102244.00
2023-04-19T08:47:58.997Z,102233.00
2023-04-19T08:50:34.703Z,102234.00
2023-04-19T08:53:24.123Z,102228.00
2023-04-19T08:56:14.726Z,102228.00
2023-04-19T08:59:04.134Z,102232.00
2023-04-19T09:01:36.013Z,102232.00
2023-04-19T09:04:26.454Z,102224.00
2023-04-19T09:06:56.279Z,102213.00
2023-04-19T09:11:58.217Z,102203.00
2023-04-19T09:14:28.400Z,102202.00
2023-04-19T09:17:17.509Z,102212.00
2023-04-19T09:19:50.146Z,102202.00
2023-04-19T09:22:18.784Z,102209.00
2023-04-19T09:25:22.797Z,102197.00
2023-04-19T09:27:37.186Z,102207.00
2023-04-19T09:30:10.812Z,102206.00
2023-04-19T09:32:49.660Z,102207.00
2023-04-19T09:35:17.156Z,102214.00
2023-04-19T09:38:05.710Z,102225.00
2023-04-19T09:40:34.395Z,102217.00
2023-04-19T09:45:47.370Z,102197.00
2023-04-19T09:48:14.792Z,102196.00
2023-04-19T09:51:07.449Z,102206.00
2023-04-19T09:53:40.493Z,102199.00
2023-04-19T09:56:12.871Z,102197.00
2023-04-19T09:58:49.984Z,102197.00
2023-04-19T10:01:22.173Z,102199.00
2023-04-19T10:03:50.931Z,102200.00
2023-04-19T10:08:54.887Z,102207.00
2023-04-19T10:11:22.887Z,102198.00
2023-04-19T10:13:56.486Z,102194.00
2023-04-19T10:16:24.256Z,102187.00
2023-04-19T10:18:53.429Z,102198.00
2023-04-19T10:21:21.962Z,102194.00
2023-04-19T10:23:49.563Z,102200.00
2023-04-19T10:26:17.214Z,102203.00
2023-04-19T10:28:44.473Z,102190.00
2023-04-19T10:31:15.475Z,102166.00
2023-04-19T10:33:42.881Z,102174.00
2023-04-19T10:36:14.297Z,102180.00
2023-04-19T10:38:55.905Z,102166.00
2023-04-19T10:41:23.303Z,102177.00
2023-04-19T10:43:56.705Z,102174.00
2023-04-19T10:46:31.971Z,102185.00
2023-04-19T10:49:01.452Z,102178.00
2023-04-19T10:51:43.470Z,102184.00
2023-04-19T10:54:36.638Z,102169.00
2023-04-19T10:57:07.510Z,102178.00
2023-04-19T10:59:40.693Z,102183.00
2023-04-19T11:02:23.557Z,102168.00
2023-04-19T11:04:51.534Z,102178.00
2023-04-19T11:07:21.578Z,102182.00
2023-04-19T11:09:51.173Z,102180.00
2023-04-19T11:12:21.420Z,102178.00
2023-04-19T11:15:09.996Z,102182.00
2023-04-19T11:17:39.885Z,102176.00
2023-04-19T11:20:11.935Z,102178.00
2023-04-19T11:22:47.490Z,102172.00
2023-04-19T11:25:22.924Z,102156.00
2023-04-19T11:27:53.828Z,102167.00
2023-04-19T11:30:29.340Z,102157.00
2023-04-19T11:33:00.323Z,102153.00
2023-04-19T11:35:32.933Z,102156.00
2023-04-19T11:38:00.834Z,102151.00
2023-04-19T11:40:28.099Z,102144.00
2023-04-19T11:43:01.597Z,102146.00
2023-04-19T11:45:36.719Z,102135.00
2023-04-19T11:48:13.035Z,102149.00
2023-04-19T11:50:43.412Z,102147.00
2023-04-19T11:53:23.594Z,102127.00
2023-04-19T11:56:03.965Z,102137.00
2023-04-19T11:58:36.193Z,102132.00
2023-04-19T12:01:16.979Z,102131.00
2023-04-19T12:03:50.822Z,102132.00
2023-04-19T12:06:23.540Z,102127.00
2023-04-19T12:08:53.159Z,102117.00
2023-04-19T12:11:24.849Z,102111.00
2023-04-19T12:14:14.925Z,102115.00
2023-04-19T12:16:43.054Z,102108.00
2023-04-19T12:19:20.676Z,102101.00
2023-04-19T12:21:48.334Z,102104.00
2023-04-19T12:24:17.340Z,102097.00
2023-04-19T12:26:57.107Z,102103.00
2023-04-19T12:29:24.369Z,102099.00
2023-04-19T12:31:51.839Z,102104.00
2023-04-19T12:34:19.496Z,102086.00
2023-04-19T12:36:46.719Z,102086.00
2023-04-19T12:39:13.995Z,102098.00
2023-04-19T12:41:41.273Z,102098.00
2023-04-19T12:44:29.360Z,102090.00
2023-04-19T12:46:57.947Z,102090.00
2023-04-19T12:49:25.420Z,102083.00
2023-04-19T12:52:12.574Z,102074.00
2023-04-19T12:54:42.754Z,102057.00
2023-04-19T12:57:09.905Z,102069.00
2023-04-19T12:59:37.212Z,102071.00
2023-04-19T13:02:04.655Z,102064.00
2023-04-19T13:04:31.979Z,102063.00
2023-04-19T13:06:59.677Z,102054.00
2023-04-19T13:09:29.285Z,102067.00
2023-04-19T13:11:56.643Z,102044.00
2023-04-19T13:14:25.764Z,102058.00
2023-04-19T13:16:56.087Z,102045.00
2023-04-19T13:19:44.390Z,102046.00
2023-04-19T13:22:11.743Z,102033.00
2023-04-19T13:24:39.150Z,102039.00
2023-04-19T13:27:08.705Z,102033.00
2023-04-19T13:29:36.889Z,102026.00
2023-04-19T13:32:07.683Z,102029.00
2023-04-19T13:34:35.160Z,102015.00
2023-04-19T13:37:02.311Z,102013.00
2023-04-19T13:39:29.716Z,102014.00
2023-04-19T13:42:00.341Z,102015.00
2023-04-19T13:44:27.813Z,102014.00
2023-04-19T13:46:55.081Z,102000.00
2023-04-19T13:49:22.271Z,102003.00
2023-04-19T13:51:50.993Z,102010.00
2023-04-19T13:54:20.037Z,101991.00
2023-04-19T13:56:50.584Z,101990.00
2023-04-19T13:59:19.243Z,101982.00
2023-04-19T14:01:46.494Z,101978.00
2023-04-19T14:04:13.978Z,101991.00
2023-04-19T14:06:41.307Z,101982.00
2023-04-19T14:09:08.494Z,101982.00
2023-04-19T14:11:39.154Z,101973.00
2023-04-19T14:14:06.536Z,101976.00
2023-04-19T14:16:33.851Z,101966.00
2023-04-19T14:19:20.343Z,101975.00
2023-04-19T14:21:47.660Z,101962.00
2023-04-19T14:24:16.102Z,101978.00
2023-04-19T14:26:43.623Z,101966.00
2023-04-19T14:29:12.173Z,101970.00
2023-04-19T14:31:45.058Z,101959.00
2023-04-19T14:34:12.235Z,101957.00
2023-04-19T14:37:35.857Z,101944.00
2023-04-19T14:40:03.568Z,101944.00
2023-04-19T14:42:31.093Z,101933.00
2023-04-19T14:45:00.873Z,101946.00
2023-04-19T14:47:29.201Z,101923.00
2023-04-19T14:49:56.551Z,101932.00
2023-04-19T14:52:24.624Z,101933.00
2023-04-19T14:54:51.980Z,101929.00
2023-04-19T14:57:23.530Z,101928.00
2023-04-19T14:59:50.804Z,101922.00
2023-04-19T15:02:18.113Z,101910.00
2023-04-19T15:04:45.437Z,101914.00
2023-04-19T15:07:12.735Z,101920.00
2023-04-19T15:09:40.443Z,101904.00
2023-04-19T15:12:07.850Z,101907.00
2023-04-19T15:14:35.250Z,101898.00
2023-04-19T15:17:03.010Z,101898.00
2023-04-19T15:19:31.334Z,101900.00
2023-04-19T15:21:58.564Z,101898.00
2023-04-19T15:24:25.838Z,101901.00
2023-04-19T15:26:52.948Z,101903.00
2023-04-19T15:29:20.866Z,101888.00
2023-04-19T15:31:48.101Z,101896.00
2023-04-19T15:34:15.271Z,101893.00
2023-04-19T15:36:42.495Z,101901.00
2023-04-19T15:39:09.794Z,101886.00
2023-04-19T15:41:37.034Z,101889.00
2023-04-19T15:44:04.644Z,101890.00
2023-04-19T15:46:31.930Z,101885.00
2023-04-19T15:48:59.117Z,101897.00
2023-04-19T15:51:27.683Z,101888.00
2023-04-19T15:53:54.957Z,101892.00
2023-04-19T15:56:22.117Z,101899.00
2023-04-19T15:58:49.286Z,101902.00
2023-04-19T16:01:18.882Z,101891.00
2023-04-19T16:03:46.644Z,101887.00
2023-04-19T16:06:14.032Z,101889.00
2023-04-19T16:08:41.421Z,101882.00
2023-04-19T16:11:08.683Z,101886.00
2023-04-19T16:13:36.392Z,101885.00
2023-04-19T16:16:03.755Z,101878.00
2023-04-19T16:18:31.508Z,101876.00
2023-04-19T16:20:58.893Z,101887.00
2023-04-19T16:23:26.531Z,101878.00
2023-04-19T16:25:55.502Z,101884.00
2023-04-19T16:28:23.992Z,101870.00
2023-04-19T16:30:51.578Z,101882.00
2023-04-19T16:33:19.017Z,101880.00
2023-04-19T16:35:48.730Z,101880.00
2023-04-19T16:38:16.228Z,101874.00
2023-04-19T16:40:46.289Z,101871.00
2023-04-19T16:43:13.445Z,101887.00
2023-04-19T16:45:42.953Z,101876.00
2023-04-19T16:48:10.717Z,101877.00
2023-04-19T16:50:38.040Z,101881.00
2023-04-19T16:53:05.415Z,101883.00
2023-04-19T16:55:32.656Z,101865.00
2023-04-19T16:57:59.855Z,101883.00
2023-04-19T17:00:27.144Z,101879.00
2023-04-19T17:02:54.770Z,101885.00
2023-04-19T17:05:24.831Z,101875.00
2023-04-19T17:07:52.984Z,101878.00
2023-04-19T17:10:21.511Z,101876.00
2023-04-19T17:12:48.987Z,101860.00
2023-04-19T17:15:19.196Z,101855.00
2023-04-19T17:17:49.425Z,101883.00
2023-04-19T17:20:16.861Z,101858.00
2023-04-19T17:22:44.136Z,101858.00
2023-04-19T17:25:11.366Z,101881.00
2023-04-19T17:27:39.215Z,101859.00
2023-04-19T17:30:08.129Z,101860.00
2023-04-19T17:32:35.590Z,101874.00
2023-04-19T17:35:05.072Z,101864.00
2023-04-19T17:37:32.553Z,101865.00
2023-04-19T17:40:19.014Z,101863.00
2023-04-19T17:42:46.378Z,101876.00
2023-04-19T17:45:13.679Z,101876.00
2023-04-19T17:47:41.514Z,101884.00
2023-04-19T17:50:13.492Z,101881.00
2023-04-19T17:52:40.989Z,101878.00
2023-04-19T17:55:09.231Z,101894.00
2023-04-19T17:57:36.660Z,101887.00
2023-04-19T18:00:07.641Z,101900.00
2023-04-19T18:02:38.292Z,101886.00
2023-04-19T18:05:06.409Z,101887.00
2023-04-19T18:07:36.944Z,101883.00
2023-04-19T18:10:04.706Z,101889.00
2023-04-19T18:12:32.206Z,101893.00
2023-04-19T18:14:59.321Z,101883.00
2023-04-19T18:17:26.790Z,101894.00
2023-04-19T18:19:54.169Z,101891.00
2023-04-19T18:22:21.660Z,101898.00
2023-04-19T18:24:51.258Z,101896.00
2023-04-19T18:27:18.633Z,101902.00
2023-04-19T18:29:46.080Z,101907.00
2023-04-19T18:32:13.492Z,101898.00
2023-04-19T18:34:40.756Z,101904.00
2023-04-19T18:37:18.123Z,101905.00
2023-04-19T18:39:45.807Z,101909.00
2023-04-19T18:42:13.252Z,101907.00
2023-04-19T18:47:10.962Z,101928.00
2023-04-19T18:49:38.110Z,101930.00
2023-04-19T18:52:05.654Z,101926.00
2023-04-19T18:54:33.186Z,101932.00
2023-04-19T18:59:36.475Z,101932.00
2023-04-19T19:02:03.963Z,101939.00
2023-04-19T19:04:48.212Z,101934.00
2023-04-19T19:07:34.914Z,101941.00
2023-04-19T19:10:17.265Z,101954.00
2023-04-19T19:12:46.260Z,101946.00
2023-04-19T19:15:14.745Z,101951.00
2023-04-19T19:17:42.778Z,101948.00
2023-04-19T19:20:10.432Z,101959.00
2023-04-19T19:22:37.709Z,101964.00
2023-04-19T19:25:05.404Z,101967.00
2023-04-19T19:27:32.687Z,101960.00
2023-04-19T19:29:59.922Z,101959.00
2023-04-19T19:32:30.029Z,101959.00
2023-04-19T19:35:03.130Z,101977.00
2023-04-19T19:37:32.507Z,101968.00
2023-04-19T19:40:04.320Z,101970.00
2023-04-19T19:42:35.676Z,101972.00
2023-04-19T19:45:04.375Z,101962.00
2023-04-19T19:47:35.325Z,101957.00
2023-04-19T19:50:48.667Z,101967.00
2023-04-19T19:52:53.558Z,101976.00
2023-04-19T19:55:20.978Z,101980.00
2023-04-19T19:58:23.953Z,101978.00
2023-04-19T20:00:46.265Z,101969.00
2023-04-19T20:03:15.503Z,101982.00
2023-04-19T20:05:44.397Z,101978.00
2023-04-19T20:08:14.294Z,101974.00
2023-04-19T20:10:43.339Z,101981.00
2023-04-19T20:13:13.339Z,101988.00
2023-04-19T20:15:41.416Z,101987.00
2023-04-19T20:18:08.883Z,101983.00
2023-04-19T20:20:37.570Z,101979.00
2023-04-19T20:23:05.788Z,101988.00
2023-04-19T20:25:33.059Z,101997.00
2023-04-19T20:28:01.543Z,101996.00
2023-04-19T20:30:29.118Z,101982.00
2023-04-19T20:32:56.465Z,101995.00
2023-04-19T20:35:27.489Z,102002.00
2023-04-19T20:37:54.984Z,101994.00
2023-04-19T20:40:23.255Z,101996.00
2023-04-19T20:42:50.675Z,101986.00
2023-04-19T20:45:19.208Z,101987.00
2023-04-19T20:47:47.298Z,101984.00
2023-04-19T20:50:15.104Z,102005.00
2023-04-19T20:52:42.504Z,101990.00
2023-04-19T20:55:10.321Z,101986.00
2023-04-19T20:57:37.528Z,101999.00
2023-04-19T21:00:08.819Z,101991.00
2023-04-19T21:02:37.104Z,101992.00
2023-04-19T21:05:05.226Z,101991.00
2023-04-19T21:07:32.568Z,101998.00
2023-04-19T21:10:00.192Z,101992.00
2023-04-19T21:12:27.534Z,101986.00
2023-04-19T21:14:57.343Z,101989.00
2023-04-19T21:17:25.198Z,101993.00
2023-04-19T21:19:52.623Z,101990.00
2023-04-19T21:22:19.974Z,101991.00
2023-04-19T21:24:47.396Z,101991.00
2023-04-19T21:27:14.976Z,101995.00
2023-04-19T21:29:42.772Z,101998.00
2023-04-19T21:32:10.885Z,101991.00
2023-04-19T21:34:42.323Z,101992.00
2023-04-19T21:37:09.652Z,101990.00
2023-04-19T21:39:36.937Z,101988.00
2023-04-19T21:42:07.398Z,101989.00
2023-04-19T21:44:35.244Z,101990.00
2023-04-19T21:47:02.563Z,101996.00
2023-04-19T21:49:29.893Z,101998.00
2023-04-19T21:51:58.283Z,101979.00
2023-04-19T21:54:33.431Z,101989.00
2023-04-19T21:57:01.733Z,101996.00
2023-04-19T21:59:30.914Z,101986.00
2023-04-19T22:01:59.540Z,101990.00
2023-04-19T22:04:31.187Z,101996.00
2023-04-19T22:07:03.045Z,101994.00
2023-04-19T22:09:31.489Z,101992.00
2023-04-19T22:12:00.316Z,101996.00
2023-04-19T22:14:27.977Z,101997.00
2023-04-19T22:17:02.934Z,101998.00
2023-04-19T22:19:30.476Z,101985.00
2023-04-19T22:21:58.208Z,101983.00
2023-04-19T22:24:25.529Z,101989.00
2023-04-19T22:26:53.153Z,101968.00
2023-04-19T22:29:20.875Z,101970.00
2023-04-19T22:31:48.484Z,101977.00
2023-04-19T22:34:16.338Z,101966.00
2023-04-19T22:36:43.862Z,101958.00
2023-04-19T22:39:11.635Z,101959.00
2023-04-19T22:41:38.927Z,101965.00
2023-04-19T22:44:06.332Z,101950.00
2023-04-19T22:46:34.070Z,101970.00
2023-04-19T22:49:02.307Z,101957.00
2023-04-19T22:51:30.533Z,101953.00
2023-04-19T22:53:58.235Z,101961.00
2023-04-19T22:56:25.769Z,101943.00
2023-04-19T22:58:52.882Z,101953.00
2023-04-19T23:01:20.014Z,101956.00
2023-04-19T23:03:47.320Z,101952.00
2023-04-19T23:06:15.012Z,101943.00
2023-04-19T23:08:42.243Z,101937.00
2023-04-19T23:11:12.460Z,101943.00
2023-04-19T23:13:57.834Z,101925.00
2023-04-19T23:16:26.079Z,101930.00
2023-04-19T23:18:53.380Z,101936.00
2023-04-19T23:21:20.714Z,101932.00
2023-04-19T23:23:47.900Z,101922.00
2023-04-19T23:26:15.441Z,101921.00
2023-04-19T23:28:42.729Z,101920.00
2023-04-19T23:31:09.848Z,101919.00
2023-04-19T23:33:37.106Z,101911.00
2023-04-19T23:36:04.743Z,101907.00
2023-04-19T23:38:31.942Z,101897.00
2023-04-19T23:40:59.163Z,101899.00
2023-04-19T23:43:26.529Z,101909.00
2023-04-19T23:45:53.636Z,101905.00
2023-04-19T23:48:20.941Z,101910.00
2023-04-19T23:50:48.053Z,101900.00
2023-04-19T23:53:16.175Z,101903.00
2023-04-19T23:55:43.661Z,101897.00
2023-04-19T23:58:11.038Z,101895.00
